Time;durP1;ratioP1;P1;durP2;ratioP2;P2;SDS_P1;SDS_P2;PMS_P1;PMS_P2;Temp;Humidity;BMP_temperature;BMP_pressure;BME280_temperature;BME280_humidity;BME280_pressure;Samples;Min_cycle;Max_cycle;Signal;HPM_P1;HPM_P2
2023/04/23 00:01:09;;;;;;;103.53;40.38;;;;;;;7.70;94.95;100917.75;6048870;19;20011;-74
2023/04/23 00:03:22;;;;;;;108.93;39.88;;;;;;;7.72;95.33;100917.72;6052371;19;20059;-74
2023/04/23 00:05:29;;;;;;;;;;;;;;;7.72;95.17;100907.28;6056708;19;20573;-73
2023/04/23 00:07:36;;;;;;;92.93;36.13;;;;;;;7.71;95.29;100906.38;6059419;19;19926;-74
2023/04/23 00:09:45;;;;;;;105.55;40.17;;;;;;;7.74;95.14;100903.72;6054784;19;20007;-74
2023/04/23 00:11:53;;;;;;;101.65;38.45;;;;;;;7.72;95.22;100904.66;6071162;19;20387;-73
2023/04/23 00:13:59;;;;;;;89.80;35.05;;;;;;;7.75;95.04;100908.03;6052629;19;20010;-74
2023/04/23 00:16:05;;;;;;;93.57;36.28;;;;;;;7.80;95.17;100903.53;6054011;19;20002;-73
2023/04/23 00:18:11;;;;;;;100.93;40.47;;;;;;;7.81;95.32;100897.38;6050785;19;20327;-74
2023/04/23 00:20:21;;;;;;;110.70;40.63;;;;;;;7.84;95.33;100891.22;6049330;19;20164;-74
2023/04/23 00:22:26;;;;;;;108.35;38.55;;;;;;;7.89;95.40;100891.94;6050369;19;20007;-75
2023/04/23 00:24:33;;;;;;;102.47;37.63;;;;;;;7.90;95.32;100891.06;6053276;19;20014;-75
2023/04/23 00:26:38;;;;;;;96.80;38.72;;;;;;;7.96;95.40;100887.41;6052490;19;20014;-74
2023/04/23 00:28:44;;;;;;;107.75;41.05;;;;;;;7.95;95.34;100896.13;6065160;19;20006;-75
2023/04/23 00:30:50;;;;;;;99.93;37.13;;;;;;;7.97;95.26;100891.72;6050794;19;20010;-74
2023/04/23 00:32:55;;;;;;;102.68;38.58;;;;;;;7.95;95.60;100878.66;6057347;19;20034;-74
2023/04/23 00:35:00;;;;;;;98.00;40.38;;;;;;;8.00;95.39;100876.78;6061060;19;20271;-74
2023/04/23 00:37:08;;;;;;;103.60;39.90;;;;;;;7.98;95.39;100877.72;6052756;19;20026;-73
2023/04/23 00:39:13;;;;;;;104.55;42.20;;;;;;;7.89;95.13;100866.63;6060680;19;20006;-72
2023/04/23 00:41:23;;;;;;;107.20;39.05;;;;;;;7.95;95.38;100870.81;6060286;19;20011;-73
2023/04/23 00:43:28;;;;;;;109.15;40.20;;;;;;;7.90;95.54;100868.38;6056149;19;20303;-73
2023/04/23 00:45:34;;;;;;;94.90;37.08;;;;;;;7.89;95.52;100861.41;6071923;19;20011;-73
2023/04/23 00:47:42;;;;;;;113.47;40.22;;;;;;;7.83;95.85;100864.19;6068313;19;20089;-73
2023/04/23 00:49:49;;;;;;;89.47;35.88;;;;;;;7.87;95.51;100860.59;6051888;19;20011;-74
2023/04/23 00:51:55;;;;;;;93.53;37.45;;;;;;;7.88;95.74;100854.47;6054531;19;23637;-73
2023/04/23 00:54:02;;;;;;;92.53;36.60;;;;;;;7.88;95.58;100857.06;6053279;19;20010;-74
2023/04/23 00:56:11;;;;;;;92.97;38.20;;;;;;;7.94;95.72;100860.41;6069544;19;20644;-74
2023/04/23 00:58:16;;;;;;;95.45;36.75;;;;;;;7.97;95.47;100858.56;6073481;19;20640;-74
2023/04/23 01:00:23;;;;;;;97.43;38.13;;;;;;;7.94;96.00;100861.28;6078802;19;20388;-75
2023/04/23 01:02:29;;;;;;;95.20;37.63;;;;;;;7.89;95.84;100856.16;6074964;19;20002;-74
2023/04/23 01:04:35;;;;;;;95.10;39.13;;;;;;;7.96;96.15;100853.38;6073355;19;20010;-75
2023/04/23 01:06:43;;;;;;;101.18;40.72;;;;;;;8.01;95.86;100851.50;6070828;19;20364;-74
2023/04/23 01:08:49;;;;;;;100.72;39.30;;;;;;;8.01;95.97;100851.50;6074792;19;20102;-74
2023/04/23 01:10:57;;;;;;;98.32;37.55;;;;;;;7.99;96.16;100856.75;6068408;19;20007;-73
2023/04/23 01:13:02;;;;;;;90.90;40.75;;;;;;;7.99;95.99;100845.44;6063603;19;20048;-73
2023/04/23 01:15:09;;;;;;;98.10;39.22;;;;;;;8.06;95.78;100844.38;6068445;19;20039;-75
2023/04/23 01:17:14;;;;;;;97.22;36.67;;;;;;;8.06;95.93;100842.59;6069855;19;20068;-75
2023/04/23 01:19:19;;;;;;;87.85;37.00;;;;;;;8.03;95.82;100833.97;6068993;19;20419;-73
2023/04/23 01:21:25;;;;;;;99.75;38.38;;;;;;;8.09;95.83;100845.13;6060388;19;20263;-74
2023/04/23 01:23:33;;;;;;;98.93;39.85;;;;;;;8.12;95.76;100834.56;6049385;19;20294;-74
2023/04/23 01:25:39;;;;;;;99.72;39.28;;;;;;;8.13;95.76;100833.63;6049402;19;20011;-74
2023/04/23 01:27:44;;;;;;;97.30;38.65;;;;;;;8.12;95.59;100833.69;6061968;19;20015;-74
2023/04/23 01:29:52;;;;;;;95.90;37.00;;;;;;;8.11;95.44;100838.09;6062009;19;20026;-75
2023/04/23 01:31:59;;;;;;;92.43;38.00;;;;;;;8.14;95.66;100835.38;6074802;19;20627;-73
2023/04/23 01:34:04;;;;;;;93.43;37.80;;;;;;;8.19;95.32;100831.72;6055674;19;20487;-73
2023/04/23 01:36:10;;;;;;;101.50;38.50;;;;;;;8.22;95.33;100829.06;6050059;19;20549;-73
2023/04/23 01:38:16;;;;;;;88.30;34.25;;;;;;;8.23;94.97;100823.75;6056087;19;20483;-74
2023/04/23 01:40:30;;;;;;;94.38;36.47;;;;;;;8.22;95.05;100822.03;6053124;19;20635;-73
2023/04/23 01:42:35;;;;;;;84.32;34.53;;;;;;;8.25;95.11;100827.19;6053176;19;20487;-74
2023/04/23 01:44:41;;;;;;;87.57;36.85;;;;;;;8.24;94.82;100825.47;6057771;19;20054;-73
2023/04/23 01:46:46;;;;;;;90.45;35.08;;;;;;;8.26;94.81;100831.50;6061760;19;20472;-75
2023/04/23 01:48:51;;;;;;;82.35;32.75;;;;;;;8.26;94.23;100826.25;6062484;19;20439;-74
2023/04/23 01:50:57;;;;;;;84.95;33.22;;;;;;;8.32;94.29;100830.44;6065637;19;20027;-74
2023/04/23 01:53:03;;;;;;;89.25;35.38;;;;;;;8.37;93.72;100833.78;6066588;19;20391;-74
2023/04/23 01:55:10;;;;;;;81.03;34.25;;;;;;;8.34;93.94;100821.66;6075093;19;20007;-75
2023/04/23 01:57:23;;;;;;;78.25;33.33;;;;;;;8.38;93.34;100825.03;6054742;19;20492;-75
2023/04/23 01:59:28;;;;;;;77.07;32.53;;;;;;;8.38;93.42;100822.41;6059485;19;20010;-74
2023/04/23 02:01:49;;;;;;;79.38;32.10;;;;;;;8.40;93.56;100818.03;6065307;19;20040;-74
2023/04/23 02:03:57;;;;;;;72.97;31.08;;;;;;;8.45;93.15;100820.47;6066704;19;20379;-74
2023/04/23 02:06:03;;;;;;;76.53;31.73;;;;;;;8.50;92.57;100829.06;6061367;19;20075;-74
2023/04/23 02:08:09;;;;;;;74.53;30.30;;;;;;;8.50;92.75;100818.56;6074146;19;20248;-74
2023/04/23 02:10:20;;;;;;;74.60;30.35;;;;;;;8.52;92.21;100816.78;6067828;19;20683;-74
2023/04/23 02:12:28;;;;;;;64.10;30.65;;;;;;;8.55;92.15;100814.91;6059446;19;20330;-74
2023/04/23 02:14:34;;;;;;;65.90;29.00;;;;;;;8.59;91.83;100805.19;6055274;19;20374;-75
2023/04/23 02:16:40;;;;;;;67.18;28.75;;;;;;;8.63;91.93;100812.03;6061625;19;20026;-74
2023/04/23 02:18:45;;;;;;;66.25;29.65;;;;;;;8.63;91.39;100798.06;6058726;19;20263;-74
2023/04/23 02:21:00;;;;;;;61.67;27.58;;;;;;;8.68;91.40;100802.25;6065383;19;20482;-75
2023/04/23 02:23:06;;;;;;;61.58;28.73;;;;;;;8.66;91.43;100803.22;6058516;19;20791;-76
2023/04/23 02:25:14;;;;;;;62.85;28.02;;;;;;;8.70;91.47;100804.84;6055175;19;20015;-75
2023/04/23 02:27:24;;;;;;;61.90;28.60;;;;;;;8.73;91.17;100802.97;6054288;19;20448;-74
2023/04/23 02:29:32;;;;;;;60.42;26.45;;;;;;;8.73;91.19;100802.97;6049831;19;20011;-75
2023/04/23 02:31:38;;;;;;;61.95;27.42;;;;;;;8.75;91.36;100805.53;6045426;19;20082;-74
2023/04/23 02:33:45;;;;;;;62.42;27.45;;;;;;;8.77;91.34;100811.59;6053214;19;19999;-74
2023/04/23 02:35:53;;;;;;;58.42;25.77;;;;;;;8.81;91.09;100809.72;6051545;19;20388;-74
2023/04/23 02:37:58;;;;;;;59.13;27.58;;;;;;;8.76;91.10;100813.34;6050824;19;20435;-74
2023/04/23 02:40:04;;;;;;;61.88;28.83;;;;;;;8.72;91.09;100808.28;6053046;19;20011;-75
2023/04/23 02:42:10;;;;;;;59.75;27.65;;;;;;;8.70;91.16;100812.69;6046797;19;20189;-74
2023/04/23 02:44:16;;;;;;;64.82;28.10;;;;;;;8.72;91.08;100816.97;6048736;19;20368;-74
2023/04/23 02:46:28;;;;;;;57.42;28.83;;;;;;;8.68;91.32;100804.88;6044089;19;20003;-74
2023/04/23 02:48:33;;;;;;;65.05;31.58;;;;;;;8.88;90.90;100813.84;6049199;19;20691;-73
2023/04/23 02:50:40;;;;;;;58.35;28.20;;;;;;;8.81;90.92;100812.34;6048849;19;20054;-73
2023/04/23 02:52:46;;;;;;;64.38;27.27;;;;;;;8.88;90.82;100811.22;6044291;19;20500;-74
2023/04/23 02:54:51;;;;;;;60.53;28.92;;;;;;;8.91;90.37;100801.50;6049861;19;20015;-73
2023/04/23 02:56:57;;;;;;;58.50;26.88;;;;;;;8.88;90.70;100803.38;6049805;19;20106;-75
2023/04/23 02:59:02;;;;;;;57.22;27.35;;;;;;;8.85;90.89;100799.09;6045631;19;24208;-73
2023/04/23 03:01:07;;;;;;;54.80;25.35;;;;;;;8.84;90.64;100796.50;6044203;19;20002;-74
2023/04/23 03:03:18;;;;;;;53.95;25.55;;;;;;;8.87;91.00;100801.63;6047909;19;20127;-73
2023/04/23 03:05:24;;;;;;;53.50;25.60;;;;;;;8.88;90.59;100800.75;6058130;19;20018;-74
2023/04/23 03:07:30;;;;;;;55.85;25.48;;;;;;;8.82;91.08;100801.81;6042161;19;20297;-74
2023/04/23 03:09:35;;;;;;;57.10;27.33;;;;;;;8.89;90.43;100792.81;6051404;19;20714;-75
2023/04/23 03:11:41;;;;;;;60.97;26.00;;;;;;;8.84;91.07;100794.75;6046610;19;20498;-73
2023/04/23 03:13:47;;;;;;;52.58;26.48;;;;;;;8.84;91.22;100791.25;6054113;19;20021;-73
2023/04/23 03:16:10;;;;;;;58.22;27.27;;;;;;;8.87;91.16;100791.16;6000165;19;20014;-70
2023/04/23 03:18:30;;;;;;;51.03;24.80;;;;;;;8.86;91.06;100789.47;6017502;19;20852;-70
2023/04/23 03:20:58;;;;;;;54.70;24.67;;;;;;;8.85;91.53;100790.38;6034851;19;20677;-70
2023/04/23 03:23:58;;;;;;;50.78;25.48;;;;;;;8.83;91.77;100784.31;6038406;19;20763;-70
2023/04/23 03:26:13;;;;;;;52.53;23.13;;;;;;;8.81;91.58;100789.59;6025747;19;20378;-70
2023/04/23 03:28:21;;;;;;;53.08;25.08;;;;;;;8.86;92.01;100792.06;6065947;19;20389;-75
2023/04/23 03:30:30;;;;;;;49.20;25.35;;;;;;;8.84;91.88;100791.25;6052249;19;20642;-76
2023/04/23 03:32:35;;;;;;;54.13;25.88;;;;;;;8.91;91.69;100791.00;6046093;19;20455;-73
2023/04/23 03:34:44;;;;;;;50.72;25.23;;;;;;;8.87;91.86;100788.53;6049298;19;20006;-73
2023/04/23 03:36:50;;;;;;;52.50;25.00;;;;;;;8.86;92.03;100789.47;6054531;19;20018;-73
2023/04/23 03:38:56;;;;;;;59.92;26.80;;;;;;;8.88;91.99;100787.66;6053541;19;20006;-75
2023/04/23 03:41:01;;;;;;;52.28;25.80;;;;;;;8.91;91.98;100777.91;6056508;19;20423;-75
2023/04/23 03:43:07;;;;;;;55.10;26.23;;;;;;;8.91;91.88;100779.69;6047130;19;20483;-74
2023/04/23 03:45:15;;;;;;;52.08;26.60;;;;;;;8.90;91.81;100780.56;6055327;19;20482;-74
2023/04/23 03:47:22;;;;;;;52.00;25.20;;;;;;;8.88;92.05;100778.00;6057122;19;20342;-74
2023/04/23 03:49:28;;;;;;;53.92;25.85;;;;;;;8.88;92.07;100780.63;6061815;19;20036;-74
2023/04/23 03:51:36;;;;;;;52.50;26.27;;;;;;;8.86;92.35;100784.22;6053655;19;20426;-73
2023/04/23 03:53:41;;;;;;;51.40;25.58;;;;;;;8.88;92.38;100777.16;6062278;19;20011;-74
2023/04/23 03:55:47;;;;;;;53.67;25.63;;;;;;;8.89;92.23;100784.09;6057458;19;20259;-74
2023/04/23 03:57:54;;;;;;;60.28;27.58;;;;;;;8.90;92.38;100783.19;6050649;19;20031;-74
2023/04/23 03:59:59;;;;;;;53.13;25.00;;;;;;;8.85;92.43;100782.50;6057652;19;20233;-74
2023/04/23 04:02:05;;;;;;;52.30;23.33;;;;;;;8.91;92.38;100792.78;6073243;19;20562;-74
2023/04/23 04:04:11;;;;;;;55.60;25.23;;;;;;;8.94;92.08;100795.28;6082512;19;20102;-74
2023/04/23 04:06:16;;;;;;;52.95;24.88;;;;;;;8.92;92.21;100789.22;6059527;19;20476;-75
2023/04/23 04:08:26;;;;;;;50.67;25.42;;;;;;;8.90;92.03;100780.56;6075215;19;20014;-75
2023/04/23 04:10:31;;;;;;;59.10;27.80;;;;;;;8.92;92.13;100781.38;6077131;19;20031;-75
2023/04/23 04:12:40;;;;;;;49.65;24.50;;;;;;;8.94;92.01;100788.28;6059558;19;20030;-70
2023/04/23 04:14:53;;;;;;;51.20;25.25;;;;;;;8.93;92.21;100783.94;6019547;19;20007;-70
2023/04/23 04:17:15;;;;;;;53.95;25.33;;;;;;;8.93;92.12;100785.72;6038496;19;20518;-70
2023/04/23 04:19:41;;;;;;;50.08;24.70;;;;;;;8.90;92.35;100780.56;6051251;19;20217;-70
2023/04/23 04:22:05;;;;;;;57.95;25.33;;;;;;;8.95;92.07;100781.25;6025826;19;20450;-71
2023/04/23 04:24:31;;;;;;;61.42;25.08;;;;;;;8.94;91.74;100777.78;6047714;19;20518;-70
2023/04/23 04:26:55;;;;;;;51.70;24.33;;;;;;;8.96;92.01;100775.13;6028394;19;20071;-70
2023/04/23 04:29:10;;;;;;;46.15;24.02;;;;;;;8.94;91.92;100780.41;6055434;19;20107;-70
2023/04/23 04:31:48;;;;;;;51.80;25.05;;;;;;;8.91;92.19;100777.91;6039850;19;20014;-69
2023/04/23 04:34:03;;;;;;;49.15;23.25;;;;;;;8.89;92.07;100771.00;6008470;19;20760;-69
2023/04/23 04:36:37;;;;;;;61.90;26.50;;;;;;;8.86;92.50;100776.34;6041948;19;20533;-70
2023/04/23 04:38:57;;;;;;;55.45;25.77;;;;;;;8.77;92.46;100773.16;6024364;19;20896;-69
2023/04/23 04:43:44;;;;;;;56.83;28.08;;;;;;;8.67;92.76;100774.34;5970589;19;20017;-69
2023/04/23 04:45:57;;;;;;;59.40;27.45;;;;;;;8.66;92.67;100777.03;6025449;19;20604;-69
2023/04/23 04:48:33;;;;;;;53.80;25.85;;;;;;;8.65;92.98;100778.78;6044482;19;20017;-69
2023/04/23 04:50:59;;;;;;;48.83;23.95;;;;;;;8.67;92.80;100778.75;6022006;19;20006;-69
2023/04/23 04:53:11;;;;;;;54.70;22.65;;;;;;;8.67;92.69;100774.34;6016564;19;20288;-69
2023/04/23 04:55:31;;;;;;;46.88;23.42;;;;;;;8.67;92.49;100773.50;6035984;19;20475;-69
2023/04/23 05:00:27;;;;;;;;;;;;;;;8.63;92.76;100783.22;5981488;19;20501;-69
2023/04/23 05:03:06;;;;;;;44.78;21.85;;;;;;;8.67;92.88;100786.59;6038064;19;20169;-69
2023/04/23 05:05:51;;;;;;;;;;;;;;;;;;;;;
2023/04/23 05:08:08;;;;;;;48.13;21.83;;;;;;;8.78;92.54;100795.81;6041918;19;20007;-68
2023/04/23 05:10:26;;;;;;;55.20;22.98;;;;;;;8.76;92.64;100794.16;6065775;19;20226;-70
2023/04/23 05:15:17;;;;;;;59.67;24.80;;;;;;;8.78;92.47;100787.09;6043499;19;20256;-69
2023/04/23 05:17:33;;;;;;;49.05;24.40;;;;;;;8.73;92.31;100776.75;6041631;19;20019;-69
2023/04/23 05:22:21;;;;;;;;;;;;;;;;;;;;;
2023/04/23 05:24:58;;;;;;;51.90;24.15;;;;;;;8.69;92.40;100780.41;6039243;19;20565;-69
2023/04/23 05:27:11;;;;;;;52.05;23.80;;;;;;;8.72;92.48;100777.69;6016456;19;20542;-69
2023/04/23 05:31:50;;;;;;;47.55;22.58;;;;;;;8.92;91.51;100786.63;6034766;19;19998;-69
2023/04/23 05:34:00;;;;;;;48.00;23.40;;;;;;;8.99;91.16;100785.50;6027396;19;20006;-69
2023/04/23 05:36:28;;;;;;;53.67;23.55;;;;;;;9.08;91.21;100787.78;5998237;19;20203;-69
2023/04/23 05:38:42;;;;;;;51.88;25.00;;;;;;;9.23;90.32;100783.78;6023053;19;20236;-69
2023/04/23 05:40:54;;;;;;;53.28;23.42;;;;;;;9.39;89.93;100781.47;6044964;19;20017;-69
2023/04/23 05:43:06;;;;;;;45.50;21.42;;;;;;;9.54;88.89;100773.03;6046094;19;20423;-69
2023/04/23 05:45:21;;;;;;;50.72;24.00;;;;;;;9.61;88.46;100771.91;6034490;19;20534;-69
2023/04/23 05:47:33;;;;;;;46.78;22.60;;;;;;;9.76;87.90;100773.06;6050348;19;20672;-69
2023/04/23 05:49:42;;;;;;;42.88;20.88;;;;;;;9.99;87.38;100764.31;6033830;19;20320;-69
2023/04/23 05:52:05;;;;;;;45.08;22.17;;;;;;;10.08;86.94;100766.59;6031435;19;20434;-69
2023/04/23 05:54:18;;;;;;;47.03;22.73;;;;;;;10.28;86.08;100773.69;6046845;19;20021;-69
2023/04/23 05:56:28;;;;;;;44.15;20.40;;;;;;;10.39;85.13;100772.41;6030451;19;20010;-69
2023/04/23 06:01:46;;;;;;;40.83;18.77;;;;;;;10.58;84.24;100772.47;6059886;19;20181;-69
2023/04/23 06:04:03;;;;;;;42.38;19.92;;;;;;;10.83;83.27;100773.16;6056619;19;20022;-69
2023/04/23 06:08:54;;;;;;;40.42;19.05;;;;;;;11.28;81.77;100771.25;6012102;19;20491;-69
2023/04/23 06:11:03;;;;;;;37.17;18.13;;;;;;;11.58;81.31;100766.34;6041983;19;20148;-69
2023/04/23 06:13:18;;;;;;;30.90;16.90;;;;;;;11.64;80.07;100771.34;6028727;19;20335;-69
2023/04/23 06:15:42;;;;;;;32.33;17.38;;;;;;;11.74;80.02;100769.13;6023305;19;20857;-70
2023/04/23 06:17:56;;;;;;;34.45;16.98;;;;;;;11.85;79.27;100762.47;6023061;19;20151;-69
2023/04/23 06:20:07;;;;;;;35.00;15.60;;;;;;;11.91;79.61;100763.13;6019972;19;20006;-69
2023/04/23 06:22:23;;;;;;;34.45;16.05;;;;;;;12.00;78.78;100755.63;6026566;19;20479;-69
2023/04/23 06:24:36;;;;;;;30.58;14.68;;;;;;;12.12;78.22;100754.19;6040582;19;20289;-69
2023/04/23 06:26:47;;;;;;;32.53;15.30;;;;;;;12.15;77.30;100754.03;6043947;19;20757;-69
2023/04/23 06:29:02;;;;;;;33.80;15.52;;;;;;;12.26;77.66;100749.09;6057877;19;20403;-70
2023/04/23 06:31:12;;;;;;;31.80;15.70;;;;;;;12.24;77.66;100747.47;6027771;19;20007;-69
2023/04/23 06:33:28;;;;;;;30.20;14.98;;;;;;;12.59;76.42;100745.72;6027477;19;20301;-70
2023/04/23 06:35:54;;;;;;;29.17;13.98;;;;;;;12.56;76.26;100745.00;6026190;19;20011;-70
2023/04/23 06:38:05;;;;;;;28.23;14.23;;;;;;;12.55;76.02;100744.16;6048094;19;20364;-70
2023/04/23 06:40:22;;;;;;;29.25;14.63;;;;;;;12.56;75.59;100740.63;6062949;19;20323;-70
2023/04/23 06:42:35;;;;;;;30.35;14.68;;;;;;;12.96;75.46;100736.78;6063242;19;20294;-70
2023/04/23 06:44:43;;;;;;;33.15;15.02;;;;;;;12.93;74.71;100741.38;6036730;19;20007;-70
2023/04/23 06:46:53;;;;;;;33.17;15.27;;;;;;;12.93;75.23;100734.31;6049629;19;20184;-70
2023/04/23 06:49:08;;;;;;;28.52;14.70;;;;;;;13.23;74.86;100728.34;6060322;19;20015;-70
2023/04/23 06:51:30;;;;;;;27.80;15.25;;;;;;;13.03;73.66;100737.31;6038750;19;20006;-70
2023/04/23 06:53:41;;;;;;;27.17;14.05;;;;;;;13.22;74.18;100733.69;6039740;19;20357;-70
2023/04/23 06:55:59;;;;;;;27.98;13.95;;;;;;;13.45;73.03;100729.84;6010583;19;20391;-70
2023/04/23 06:58:26;;;;;;;29.10;14.25;;;;;;;13.07;72.81;100738.00;6052676;19;20151;-70
2023/04/23 07:00:42;;;;;;;25.98;13.52;;;;;;;13.46;73.39;100731.59;6053853;19;20467;-70
2023/04/23 07:02:48;;;;;;;27.48;13.88;;;;;;;13.42;73.04;100725.59;6053377;19;20007;-70
2023/04/23 07:05:02;;;;;;;32.42;13.75;;;;;;;13.03;73.47;100733.81;6052643;19;20010;-70
2023/04/23 07:07:30;;;;;;;35.42;14.82;;;;;;;13.21;74.24;100734.63;6054349;19;20002;-68
2023/04/23 07:09:36;;;;;;;28.15;13.63;;;;;;;13.94;73.09;100728.00;6039040;19;20070;-69
2023/04/23 07:11:50;;;;;;;28.40;14.18;;;;;;;13.89;71.25;100734.50;6030769;19;20244;-69
2023/04/23 07:14:05;;;;;;;25.50;12.75;;;;;;;13.99;71.83;100733.03;6032842;19;20524;-68
2023/04/23 07:16:13;;;;;;;28.42;12.27;;;;;;;14.12;71.07;100731.41;6057624;19;20010;-69
2023/04/23 07:18:41;;;;;;;30.20;12.70;;;;;;;13.95;71.10;100729.69;6053210;19;20470;-69
2023/04/23 07:20:59;;;;;;;27.63;13.15;;;;;;;14.25;71.70;100721.81;6060091;19;20392;-69
2023/04/23 07:23:09;;;;;;;25.15;12.02;;;;;;;14.46;69.79;100727.66;6056269;19;20534;-69
2023/04/23 07:25:23;;;;;;;24.48;10.38;;;;;;;14.37;70.60;100724.69;6054720;19;20251;-69
2023/04/23 07:27:32;;;;;;;21.95;10.73;;;;;;;14.32;68.98;100727.59;6036609;19;20010;-69
2023/04/23 07:29:44;;;;;;;24.38;11.15;;;;;;;14.71;70.78;100711.22;6047065;19;20489;-69
2023/04/23 07:31:53;;;;;;;22.60;10.82;;;;;;;14.90;69.91;100705.69;6042700;19;20079;-69
2023/04/23 07:34:01;;;;;;;24.00;11.38;;;;;;;14.93;68.27;100709.94;6041257;19;20276;-69
2023/04/23 07:36:12;;;;;;;20.77;11.02;;;;;;;15.05;68.26;100710.97;6020502;19;20158;-69
2023/04/23 07:38:23;;;;;;;24.42;11.07;;;;;;;14.39;68.81;100722.81;6034967;19;20546;-69
2023/04/23 07:40:32;;;;;;;22.35;9.60;;;;;;;14.52;69.62;100712.38;6053946;19;20361;-69
2023/04/23 07:42:42;;;;;;;19.10;9.02;;;;;;;14.93;68.10;100716.06;6047095;19;20369;-69
2023/04/23 07:44:51;;;;;;;20.25;9.23;;;;;;;14.69;68.09;100713.13;6042058;19;20495;-69
2023/04/23 07:46:57;;;;;;;19.98;9.88;;;;;;;15.17;67.94;100710.22;6048241;19;20521;-70
2023/04/23 07:49:10;;;;;;;17.52;8.77;;;;;;;15.57;66.72;100707.72;6049451;19;20487;-70
2023/04/23 07:51:30;;;;;;;17.08;8.13;;;;;;;15.14;66.35;100705.97;6001467;19;20229;-70
2023/04/23 07:53:37;;;;;;;16.50;8.13;;;;;;;14.93;67.59;100717.88;5984713;19;20980;-69
2023/04/23 07:55:44;;;;;;;20.45;9.18;;;;;;;14.76;67.93;100715.38;6059996;19;20488;-69
2023/04/23 07:57:55;;;;;;;22.55;8.32;;;;;;;15.23;66.53;100712.50;6035020;19;20234;-70
2023/04/23 08:00:12;;;;;;;18.80;8.20;;;;;;;15.30;66.10;100711.16;6050590;19;20526;-69
2023/04/23 08:02:25;;;;;;;19.35;8.27;;;;;;;15.32;66.47;100709.28;6046675;19;20443;-69
2023/04/23 08:04:32;;;;;;;19.13;8.13;;;;;;;15.47;66.27;100696.00;6049991;19;20375;-69
2023/04/23 08:06:43;;;;;;;23.02;8.98;;;;;;;15.82;64.89;100691.13;6028982;19;20015;-70
2023/04/23 08:08:54;;;;;;;15.20;7.82;;;;;;;16.21;64.45;100692.13;6047023;19;20483;-70
2023/04/23 08:11:05;;;;;;;16.45;7.65;;;;;;;16.39;63.46;100687.41;6045559;19;20279;-69
2023/04/23 08:13:14;;;;;;;17.63;7.50;;;;;;;16.77;62.96;100689.22;6035172;19;20132;-69
2023/04/23 08:15:23;;;;;;;17.25;8.27;;;;;;;16.77;62.55;100694.53;6048859;19;20442;-69
2023/04/23 08:17:34;;;;;;;21.20;9.27;;;;;;;16.60;62.09;100688.59;6057890;19;20217;-69
2023/04/23 08:19:39;;;;;;;18.65;7.88;;;;;;;16.29;62.75;100686.31;6046139;19;20518;-69
2023/04/23 08:21:52;;;;;;;21.75;8.40;;;;;;;16.45;61.97;100681.66;6046766;19;20924;-69
2023/04/23 08:23:58;;;;;;;18.00;8.75;;;;;;;16.37;62.78;100686.63;6047846;19;20390;-69
2023/04/23 08:26:03;;;;;;;17.08;6.97;;;;;;;15.98;63.07;100690.97;6067645;19;20019;-69
2023/04/23 08:28:09;;;;;;;20.95;7.15;;;;;;;15.91;63.78;100684.41;6059308;19;20038;-70
2023/04/23 08:30:15;;;;;;;19.33;7.90;;;;;;;15.80;63.51;100688.59;6054288;19;20511;-70
2023/04/23 08:32:23;;;;;;;20.00;7.82;;;;;;;16.11;63.51;100686.56;6050440;19;20088;-69
2023/04/23 08:34:29;;;;;;;16.73;7.45;;;;;;;16.48;62.57;100684.09;6046813;19;20007;-69
2023/04/23 08:36:37;;;;;;;14.65;6.82;;;;;;;16.35;61.75;100692.06;6030924;19;20010;-69
2023/04/23 08:38:45;;;;;;;18.35;8.20;;;;;;;16.48;62.71;100693.88;6048087;19;20463;-69
2023/04/23 08:40:59;;;;;;;15.95;6.97;;;;;;;16.14;62.57;100688.16;6049642;19;20019;-69
2023/04/23 08:43:08;;;;;;;19.02;7.63;;;;;;;16.03;63.61;100696.81;6054704;19;20672;-69
2023/04/23 08:45:15;;;;;;;21.85;7.80;;;;;;;16.56;62.51;100696.84;6053713;19;20473;-69
2023/04/23 08:47:27;;;;;;;19.20;8.80;;;;;;;16.65;61.95;100690.94;6056055;19;20031;-69
2023/04/23 08:49:36;;;;;;;20.67;7.37;;;;;;;16.59;61.99;100694.00;6052056;19;20489;-69
2023/04/23 08:51:44;;;;;;;19.88;7.30;;;;;;;16.84;61.33;100699.34;6056632;19;20622;-69
2023/04/23 08:53:57;;;;;;;15.50;7.38;;;;;;;16.78;61.11;100697.13;6059564;19;20060;-70
2023/04/23 08:56:05;;;;;;;17.00;7.00;;;;;;;16.03;62.46;100699.47;6057242;19;20052;-69
2023/04/23 08:58:12;;;;;;;15.07;6.90;;;;;;;15.85;63.44;100703.31;6064880;19;20473;-69
2023/04/23 09:00:21;;;;;;;15.18;6.72;;;;;;;16.48;62.13;100699.19;6057771;19;20256;-69
2023/04/23 09:02:27;;;;;;;16.85;6.55;;;;;;;16.71;60.93;100694.97;6061428;19;20438;-70
2023/04/23 09:04:34;;;;;;;16.38;6.65;;;;;;;16.79;60.11;100695.31;6064794;19;20146;-69
2023/04/23 09:06:44;;;;;;;16.50;6.35;;;;;;;17.05;59.80;100697.00;6055700;19;20027;-69
2023/04/23 09:08:53;;;;;;;16.73;7.47;;;;;;;16.32;60.66;100686.09;6052298;19;20254;-69
2023/04/23 09:11:03;;;;;;;20.35;6.10;;;;;;;16.24;61.58;100692.78;6055673;19;20316;-69
2023/04/23 09:13:09;;;;;;;16.95;6.05;;;;;;;17.17;60.91;100689.13;6052010;19;20203;-71
2023/04/23 09:15:14;;;;;;;16.60;5.78;;;;;;;16.86;58.85;100691.31;6050033;19;20019;-73
2023/04/23 09:17:24;;;;;;;20.20;5.60;;;;;;;16.83;59.26;100687.06;6059026;19;20698;-73
2023/04/23 09:19:30;;;;;;;16.77;5.68;;;;;;;16.98;59.80;100687.81;6052300;19;20308;-72
2023/04/23 09:21:36;;;;;;;19.73;6.72;;;;;;;17.44;59.94;100676.56;6047448;19;20021;-71
2023/04/23 09:23:41;;;;;;;17.63;6.10;;;;;;;17.61;58.11;100667.34;6075163;19;20047;-71
2023/04/23 09:25:49;;;;;;;16.60;6.00;;;;;;;16.76;60.47;100680.44;6053766;19;20019;-72
2023/04/23 09:27:54;;;;;;;16.42;5.65;;;;;;;16.52;60.94;100674.16;6052483;19;20378;-71
2023/04/23 09:30:02;;;;;;;12.45;5.10;;;;;;;16.44;60.84;100678.16;6056749;19;20293;-71
2023/04/23 09:32:09;;;;;;;13.68;5.93;;;;;;;15.96;61.74;100677.84;6054229;19;20208;-71
2023/04/23 09:34:17;;;;;;;13.90;5.68;;;;;;;16.32;61.75;100670.19;6044115;19;20017;-71
2023/04/23 09:36:27;;;;;;;16.55;6.18;;;;;;;16.38;60.54;100665.34;6044328;19;20274;-71
2023/04/23 09:38:32;;;;;;;17.52;6.93;;;;;;;16.38;61.79;100667.16;6043038;19;20431;-72
2023/04/23 09:40:37;;;;;;;14.40;6.75;;;;;;;16.73;60.85;100667.38;6051268;19;20252;-72
2023/04/23 09:42:53;;;;;;;17.13;7.63;;;;;;;16.33;62.68;100675.41;6049835;19;20010;-70
2023/04/23 09:44:59;;;;;;;17.75;8.13;;;;;;;16.35;61.50;100667.31;6054007;19;20008;-72
2023/04/23 09:47:10;;;;;;;19.80;6.90;;;;;;;16.65;61.71;100657.28;6053478;19;20676;-71
2023/04/23 09:49:16;;;;;;;18.90;7.18;;;;;;;16.77;60.97;100649.44;6053457;19;20346;-72
2023/04/23 09:51:30;;;;;;;21.05;7.47;;;;;;;16.65;61.29;100667.91;6045991;19;20015;-72
2023/04/23 09:53:43;;;;;;;18.92;7.38;;;;;;;17.04;60.98;100660.81;6040190;19;20366;-70
2023/04/23 09:55:48;;;;;;;15.55;5.78;;;;;;;16.50;59.71;100650.38;6051348;19;20616;-75
2023/04/23 09:57:56;;;;;;;20.50;6.40;;;;;;;16.97;59.45;100656.88;6063011;19;20336;-71
2023/04/23 10:00:01;;;;;;;15.98;5.85;;;;;;;17.16;59.96;100651.13;6053357;19;20634;-72
2023/04/23 10:02:20;;;;;;;17.33;6.70;;;;;;;17.11;59.02;100659.44;6058201;19;20494;-72
2023/04/23 10:04:32;;;;;;;22.42;7.75;;;;;;;16.35;61.02;100662.03;6062125;19;20152;-71
2023/04/23 10:06:42;;;;;;;14.55;7.15;;;;;;;16.60;60.85;100651.44;6053955;19;20117;-71
2023/04/23 10:09:06;;;;;;;18.45;7.35;;;;;;;16.71;60.85;100655.16;6058869;19;20018;-71
2023/04/23 10:11:15;;;;;;;16.92;7.38;;;;;;;17.25;60.29;100642.50;6062271;19;20021;-73
2023/04/23 10:13:26;;;;;;;21.42;7.10;;;;;;;16.78;59.33;100648.53;6063535;19;20017;-70
2023/04/23 10:15:32;;;;;;;16.25;6.85;;;;;;;17.13;58.71;100647.84;6055000;19;20323;-71
2023/04/23 10:17:37;;;;;;;16.05;6.70;;;;;;;17.08;59.48;100646.34;6046604;19;20049;-71
2023/04/23 10:19:44;;;;;;;17.15;6.53;;;;;;;17.05;57.99;100643.06;6062262;19;20693;-71
2023/04/23 10:21:52;;;;;;;11.27;5.82;;;;;;;17.38;57.19;100641.59;6049167;19;20425;-72